< < Back
Terminal Aerodrome Forecast


Current Version              Previous Versions:   1  2  3  4  5  6  7  8  9  

Terminal Aerodrome Forecast

721
FTUS44 KMRX 252320
TAFTYS
TAF
KTYS 252320Z 2600/2624 31005KT P6SM SCT050 SCT250
     FM260300 VRB02KT P6SM FEW050
     FM261500 04005KT P6SM SCT050 SCT250=

Latest METAR

901
SAUS80 KWBC 270300 CCA
MTRTYS
METAR KTYS 270253Z 00000KT 10SM FEW060 FEW100 BKN250 29/19 A3010 RMK AO2
SLP177 FRQ LTG DSNT SE-SSW CB DSNT SE-SSW T02890194 51017


USA.gov is the U.S. government's official web portal to all federal, state and local government web resources and services.